Time;durP1;ratioP1;P1;durP2;ratioP2;P2;SDS_P1;SDS_P2;PMS_P1;PMS_P2;Temp;Humidity;BMP_temperature;BMP_pressure;BME280_temperature;BME280_humidity;BME280_pressure;Samples;Min_cycle;Max_cycle;Signal;HPM_P1;HPM_P2
2021/12/25 00:00:59;;;;;;;;;;;7.50;99.90;;;;;;5097193;28;19911;-72
2021/12/25 00:03:24;;;;;;;;;;;7.50;99.90;;;;;;5089475;28;21064;-72
2021/12/25 00:05:52;;;;;;;;;;;7.50;99.90;;;;;;5097326;28;19907;-73
2021/12/25 00:08:21;;;;;;;;;;;7.50;99.90;;;;;;5091230;28;20358;-72
2021/12/25 00:10:47;;;;;;;;;;;7.60;99.90;;;;;;5088923;28;19912;-72
2021/12/25 00:13:14;;;;;;;;;;;7.60;99.90;;;;;;5082130;28;19915;-72
2021/12/25 00:15:40;;;;;;;;;;;7.60;99.90;;;;;;5079193;28;19915;-71
2021/12/25 00:18:08;;;;;;;;;;;7.60;99.90;;;;;;5078420;28;19908;-71
2021/12/25 00:20:33;;;;;;;;;;;7.50;99.90;;;;;;5088860;28;19908;-71
2021/12/25 00:23:00;;;;;;;;;;;7.50;99.90;;;;;;5081012;28;19908;-72
2021/12/25 00:25:26;;;;;;;;;;;7.50;99.90;;;;;;5087789;28;20265;-72
2021/12/25 00:28:05;;;;;;;;;;;7.50;99.90;;;;;;5100367;28;19999;-72
2021/12/25 00:33:03;;;;;;;;;;;7.50;99.90;;;;;;5089663;28;20375;-72
2021/12/25 00:35:28;;;;;;;;;;;7.50;99.90;;;;;;5092812;28;20234;-73
2021/12/25 00:37:54;;;;;;;;;;;7.50;99.90;;;;;;5092817;28;19915;-73
2021/12/25 00:40:20;;;;;;;;;;;7.50;99.90;;;;;;5095481;28;20003;-73
2021/12/25 00:42:46;;;;;;;;;;;7.50;99.90;;;;;;5099256;28;20431;-73
2021/12/25 00:45:12;;;;;;;;;;;7.50;99.90;;;;;;5089637;28;19919;-73
2021/12/25 00:47:37;;;;;;;;;;;7.50;99.90;;;;;;5089759;28;19916;-72
2021/12/25 00:50:03;;;;;;;;;;;7.40;99.90;;;;;;5088140;28;19919;-72
2021/12/25 00:52:29;;;;;;;;;;;7.40;99.90;;;;;;5102996;28;19912;-72
2021/12/25 00:54:54;;;;;;;;;;;7.40;99.90;;;;;;5093654;28;19919;-72
2021/12/25 00:57:20;;;;;;;;;;;7.40;99.90;;;;;;5094540;28;20078;-72
2021/12/25 00:59:46;;;;;;;;;;;7.30;99.90;;;;;;5104705;28;19954;-72
2021/12/25 01:02:11;;;;;;;;;;;7.40;99.90;;;;;;5092313;28;19914;-72
2021/12/25 01:04:37;;;;;;;;;;;7.40;99.90;;;;;;5086034;28;19908;-72
2021/12/25 01:07:03;;;;;;;;;;;7.50;99.90;;;;;;5104156;28;19904;-72
2021/12/25 01:09:29;;;;;;;;;;;7.50;99.90;;;;;;5083327;28;20218;-73
2021/12/25 01:11:56;;;;;;;;;;;7.50;99.90;;;;;;5090274;28;20380;-74
2021/12/25 01:14:37;;;;;;;;;;;7.40;99.90;;;;;;5105695;28;19903;-73
2021/12/25 01:30:16;;;;;;;;;;;7.40;99.90;;;;;;5094234;28;19934;-72
2021/12/25 01:38:03;;;;;;;;;;;7.40;99.90;;;;;;5089184;28;19915;-72
2021/12/25 01:48:37;;;;;;;;;;;7.40;99.90;;;;;;5105461;28;20312;-72
2021/12/25 01:51:03;;;;;;;;;;;7.40;99.90;;;;;;5091499;28;19959;-72
2021/12/25 01:53:28;;;;;;;;;;;7.40;99.90;;;;;;5099731;28;20404;-72
2021/12/25 01:55:54;;;;;;;;;;;7.50;99.90;;;;;;5087554;28;19919;-72
2021/12/25 01:58:20;;;;;;;;;;;7.50;99.90;;;;;;5087122;28;19961;-72
2021/12/25 02:00:48;;;;;;;;;;;7.50;99.90;;;;;;5097156;28;19915;-72
2021/12/25 02:03:15;;;;;;;;;;;7.50;99.90;;;;;;5096763;28;19908;-72
2021/12/25 02:05:41;;;;;;;;;;;7.60;99.90;;;;;;5093723;28;19919;-72
2021/12/25 02:08:06;;;;;;;;;;;7.50;99.90;;;;;;5096296;28;19907;-72
2021/12/25 02:10:32;;;;;;;;;;;7.50;99.90;;;;;;5097951;28;19915;-72
2021/12/25 02:12:58;;;;;;;;;;;7.50;99.90;;;;;;5095819;28;19994;-72
2021/12/25 02:15:26;;;;;;;;;;;7.40;99.90;;;;;;5091256;28;20198;-72
2021/12/25 02:18:15;;;;;;;;;;;7.40;99.90;;;;;;5096686;28;19915;-72
2021/12/25 02:20:54;;;;;;;;;;;7.30;99.90;;;;;;5091708;28;19904;-72
2021/12/25 02:23:22;;;;;;;;;;;7.30;99.90;;;;;;5101330;28;19929;-72
2021/12/25 02:25:52;;;;;;;;;;;7.40;99.90;;;;;;5096631;28;20222;-72
2021/12/25 02:28:18;;;;;;;;;;;7.40;99.90;;;;;;5101065;28;20007;-72
2021/12/25 02:30:45;;;;;;;;;;;7.40;99.90;;;;;;5092953;28;19947;-72
2021/12/25 02:33:10;;;;;;;;;;;7.50;99.90;;;;;;5096198;28;20342;-72
2021/12/25 02:35:36;;;;;;;;;;;7.40;99.90;;;;;;5092789;28;19947;-72
2021/12/25 02:38:02;;;;;;;;;;;7.50;99.90;;;;;;5103475;28;19907;-72
2021/12/25 02:40:28;;;;;;;;;;;7.50;99.90;;;;;;5089694;28;19904;-72
2021/12/25 02:42:54;;;;;;;;;;;7.40;99.90;;;;;;5098783;28;19938;-72
2021/12/25 02:45:21;;;;;;;;;;;7.40;99.90;;;;;;5086809;28;19911;-72
2021/12/25 02:47:48;;;;;;;;;;;7.40;99.90;;;;;;5092015;28;20376;-73
2021/12/25 02:50:28;;;;;;;;;;;7.30;99.90;;;;;;5098143;28;19964;-72
2021/12/25 02:52:54;;;;;;;;;;;7.30;99.90;;;;;;5095761;28;19915;-73
2021/12/25 02:55:20;;;;;;;;;;;7.30;99.90;;;;;;5090762;28;19908;-72
2021/12/25 02:57:50;;;;;;;;;;;7.30;99.90;;;;;;5100871;28;20119;-72
2021/12/25 03:00:17;;;;;;;;;;;7.40;99.90;;;;;;5093527;28;20157;-72
2021/12/25 03:02:43;;;;;;;;;;;7.40;99.90;;;;;;5099151;28;20015;-71
2021/12/25 03:05:09;;;;;;;;;;;7.40;99.90;;;;;;5132752;27;19931;-72
2021/12/25 03:07:34;;;;;;;;;;;7.30;99.90;;;;;;5093440;28;20310;-72
2021/12/25 03:10:00;;;;;;;;;;;7.50;99.90;;;;;;5103022;28;19918;-72
2021/12/25 03:12:36;;;;;;;;;;;7.40;99.90;;;;;;5092154;28;19908;-72
2021/12/25 03:15:15;;;;;;;;;;;7.40;99.90;;;;;;5097274;28;19908;-72
2021/12/25 03:17:40;;;;;;;;;;;7.40;99.90;;;;;;5097861;28;19908;-72
2021/12/25 03:20:07;;;;;;;;;;;7.40;99.90;;;;;;5094800;28;19914;-72
2021/12/25 03:22:33;;;;;;;;;;;7.40;99.90;;;;;;5094967;28;19953;-71
2021/12/25 03:24:59;;;;;;;;;;;7.40;99.90;;;;;;5085593;28;20007;-71
2021/12/25 03:27:24;;;;;;;;;;;7.30;99.90;;;;;;5094385;28;20318;-72
2021/12/25 03:29:50;;;;;;;;;;;7.30;99.90;;;;;;5098478;28;19935;-72
2021/12/25 03:32:16;;;;;;;;;;;7.20;99.90;;;;;;5097657;28;19908;-72
2021/12/25 03:34:42;;;;;;;;;;;7.20;99.90;;;;;;5077730;28;19908;-73
2021/12/25 03:37:07;;;;;;;;;;;7.20;99.90;;;;;;5092132;28;19908;-72
2021/12/25 03:39:33;;;;;;;;;;;7.20;99.90;;;;;;5098437;28;19956;-72
2021/12/25 03:41:59;;;;;;;;;;;7.20;99.90;;;;;;5103435;28;19931;-73
2021/12/25 03:44:25;;;;;;;;;;;7.30;99.90;;;;;;5092294;28;19915;-72
2021/12/25 03:46:53;;;;;;;;;;;7.30;99.90;;;;;;5100268;28;19919;-72
2021/12/25 03:49:44;;;;;;;;;;;7.40;99.90;;;;;;5093389;28;19938;-72
2021/12/25 03:57:42;;;;;;;;;;;7.50;99.90;;;;;;5098759;28;19977;-72
2021/12/25 04:00:09;;;;;;;;;;;7.60;99.90;;;;;;5099643;28;19911;-72
2021/12/25 04:02:42;;;;;;;;;;;7.60;99.90;;;;;;5086016;28;20342;-72
2021/12/25 04:05:15;;;;;;;;;;;7.50;99.90;;;;;;5092900;28;19908;-72
2021/12/25 04:10:09;;;;;;;;;;;7.50;99.90;;;;;;5089307;28;19912;-72
2021/12/25 04:12:35;;;;;;;;;;;7.50;99.90;;;;;;5094600;28;19978;-72
2021/12/25 04:15:01;;;;;;;;;;;7.50;99.90;;;;;;5099674;28;20461;-73
2021/12/25 04:17:26;;;;;;;;;;;7.40;99.90;;;;;;5096836;28;19961;-73
2021/12/25 04:19:52;;;;;;;;;;;7.50;99.90;;;;;;5097820;28;19908;-73
2021/12/25 04:22:25;;;;;;;;;;;7.40;99.90;;;;;;5095856;28;20273;-73
2021/12/25 04:24:52;;;;;;;;;;;7.30;99.90;;;;;;5094207;28;19958;-72
2021/12/25 04:27:18;;;;;;;;;;;7.30;99.90;;;;;;5101393;28;19915;-72
2021/12/25 04:29:53;;;;;;;;;;;7.30;99.90;;;;;;5093572;28;19912;-72
2021/12/25 05:02:08;;;;;;;;;;;7.60;99.90;;;;;;5101553;28;20043;-72
2021/12/25 05:04:40;;;;;;;;;;;7.70;99.90;;;;;;5091021;28;19916;-72
2021/12/25 05:07:06;;;;;;;;;;;7.70;99.90;;;;;;5093739;28;19908;-72
2021/12/25 05:09:31;;;;;;;;;;;7.70;99.90;;;;;;5094895;28;19939;-72
2021/12/25 05:11:57;;;;;;;;;;;7.70;99.90;;;;;;5087106;28;20342;-72
2021/12/25 05:14:22;;;;;;;;;;;7.70;99.90;;;;;;5102604;28;19915;-73
2021/12/25 05:16:48;;;;;;;;;;;7.70;99.90;;;;;;5097522;28;19908;-72
2021/12/25 05:19:14;;;;;;;;;;;7.60;99.90;;;;;;5094146;28;19916;-73
2021/12/25 05:21:39;;;;;;;;;;;7.70;99.90;;;;;;5100390;28;20437;-72
2021/12/25 05:24:06;;;;;;;;;;;7.80;99.90;;;;;;5100357;28;19908;-72
2021/12/25 05:26:32;;;;;;;;;;;7.70;99.90;;;;;;5098074;28;20013;-73
2021/12/25 05:29:00;;;;;;;;;;;7.80;99.90;;;;;;5105690;28;20181;-73
2021/12/25 05:31:26;;;;;;;;;;;7.80;99.90;;;;;;5092613;28;19912;-72
2021/12/25 05:33:52;;;;;;;;;;;7.80;99.90;;;;;;5107107;28;19994;-72
2021/12/25 05:36:18;;;;;;;;;;;7.80;99.90;;;;;;5103261;28;20007;-72
2021/12/25 05:38:43;;;;;;;;;;;7.60;99.90;;;;;;5095150;28;19961;-72
2021/12/25 05:41:11;;;;;;;;;;;7.70;99.90;;;;;;5092994;28;19919;-72
2021/12/25 05:43:37;;;;;;;;;;;7.70;99.90;;;;;;5087678;28;19935;-73
2021/12/25 05:46:02;;;;;;;;;;;7.70;99.90;;;;;;5095618;28;20345;-72
2021/12/25 05:48:29;;;;;;;;;;;7.60;99.90;;;;;;5093213;28;20385;-73
2021/12/25 05:50:54;;;;;;;;;;;7.50;99.90;;;;;;5091235;28;19979;-73
2021/12/25 05:53:21;;;;;;;;;;;7.60;99.90;;;;;;5098379;28;20019;-73
2021/12/25 05:55:47;;;;;;;;;;;7.50;99.90;;;;;;5101950;28;19965;-72
2021/12/25 05:58:13;;;;;;;;;;;7.50;99.90;;;;;;5103558;28;19907;-73
2021/12/25 06:00:38;;;;;;;;;;;7.50;99.90;;;;;;5059836;28;1166704;-72
2021/12/25 06:03:04;;;;;;;;;;;7.50;99.90;;;;;;5098723;28;19908;-73
2021/12/25 06:05:30;;;;;;;;;;;7.50;99.90;;;;;;5097551;28;19914;-71
2021/12/25 06:07:56;;;;;;;;;;;7.50;99.90;;;;;;5099345;28;19964;-73
2021/12/25 06:10:22;;;;;;;;;;;7.40;99.90;;;;;;5096514;28;19931;-72
2021/12/25 06:12:48;;;;;;;;;;;7.50;99.90;;;;;;5101333;28;19907;-71
2021/12/25 06:15:15;;;;;;;;;;;7.50;99.90;;;;;;5101473;28;19908;-72
2021/12/25 06:17:41;;;;;;;;;;;7.50;99.90;;;;;;5100952;28;20393;-72
2021/12/25 06:20:07;;;;;;;;;;;7.50;99.90;;;;;;5092547;28;19914;-72
2021/12/25 06:22:33;;;;;;;;;;;7.50;99.90;;;;;;5093075;28;19965;-71
2021/12/25 06:24:58;;;;;;;;;;;7.50;99.90;;;;;;5102694;28;19990;-72
2021/12/25 06:27:24;;;;;;;;;;;7.50;99.90;;;;;;5095536;28;19911;-73
2021/12/25 06:29:50;;;;;;;;;;;7.60;99.90;;;;;;5101084;28;19957;-72
2021/12/25 06:32:16;;;;;;;;;;;7.70;99.90;;;;;;5093498;28;20443;-73
2021/12/25 06:34:42;;;;;;;;;;;7.60;99.90;;;;;;5097458;28;20014;-72
2021/12/25 06:37:08;;;;;;;;;;;7.60;99.90;;;;;;5103696;28;20308;-72
2021/12/25 06:39:33;;;;;;;;;;;7.50;99.90;;;;;;5092072;28;19922;-73
2021/12/25 06:42:00;;;;;;;;;;;7.50;99.90;;;;;;5098552;28;19948;-72
2021/12/25 06:44:27;;;;;;;;;;;7.60;99.90;;;;;;5094993;28;19921;-72
2021/12/25 06:46:52;;;;;;;;;;;7.60;99.90;;;;;;5075833;28;19912;-72
2021/12/25 06:49:18;;;;;;;;;;;7.70;99.90;;;;;;5087852;28;19934;-72
2021/12/25 06:51:44;;;;;;;;;;;7.70;99.90;;;;;;5104762;28;19998;-73
2021/12/25 06:54:10;;;;;;;;;;;7.60;99.90;;;;;;5103155;28;19954;-72
2021/12/25 06:56:35;;;;;;;;;;;7.60;99.90;;;;;;5096773;28;19919;-72
2021/12/25 06:59:01;;;;;;;;;;;7.60;99.90;;;;;;5097093;28;20006;-72
2021/12/25 07:01:26;;;;;;;;;;;7.70;99.90;;;;;;5089420;28;20366;-72
2021/12/25 07:03:52;;;;;;;;;;;7.80;99.90;;;;;;5100477;28;20334;-72
2021/12/25 07:06:18;;;;;;;;;;;7.80;99.90;;;;;;5098920;28;19908;-72
2021/12/25 07:08:43;;;;;;;;;;;7.80;99.90;;;;;;5097074;28;19907;-72
2021/12/25 07:11:09;;;;;;;;;;;7.80;99.90;;;;;;5106581;28;20391;-73
2021/12/25 07:13:34;;;;;;;;;;;7.80;99.90;;;;;;5100215;28;19947;-72
2021/12/25 07:16:00;;;;;;;;;;;7.80;99.90;;;;;;5091949;28;19907;-73
2021/12/25 07:18:26;;;;;;;;;;;7.80;99.90;;;;;;5094723;28;19930;-72
2021/12/25 07:20:51;;;;;;;;;;;7.90;99.90;;;;;;5100622;28;20273;-73
2021/12/25 07:23:17;;;;;;;;;;;7.80;99.90;;;;;;5104572;28;20362;-73
2021/12/25 07:25:43;;;;;;;;;;;7.80;99.90;;;;;;5098319;28;19908;-73
2021/12/25 07:28:09;;;;;;;;;;;7.80;99.90;;;;;;5104532;28;19975;-73
2021/12/25 07:30:35;;;;;;;;;;;7.80;99.90;;;;;;5095877;28;19965;-71
2021/12/25 07:33:00;;;;;;;;;;;7.90;99.90;;;;;;5095746;28;19908;-72
2021/12/25 07:35:27;;;;;;;;;;;8.00;99.90;;;;;;5098421;28;19904;-72
2021/12/25 07:37:52;;;;;;;;;;;8.00;99.90;;;;;;5102513;28;19908;-72
2021/12/25 07:40:18;;;;;;;;;;;8.10;99.90;;;;;;5100182;28;19910;-73
2021/12/25 07:42:44;;;;;;;;;;;8.10;99.90;;;;;;5100196;28;20393;-72
2021/12/25 07:45:11;;;;;;;;;;;8.20;99.90;;;;;;5097618;28;19950;-69
2021/12/25 07:47:40;;;;;;;;;;;8.20;99.90;;;;;;5094580;28;19915;-69
2021/12/25 07:50:06;;;;;;;;;;;8.10;99.90;;;;;;5097928;28;19924;-70
2021/12/25 07:52:31;;;;;;;;;;;8.00;99.90;;;;;;5101993;28;20296;-68
2021/12/25 07:54:57;;;;;;;;;;;7.90;99.90;;;;;;5095163;28;19919;-68
2021/12/25 07:57:22;;;;;;;;;;;7.80;99.90;;;;;;5095651;28;19957;-67
2021/12/25 07:59:48;;;;;;;;;;;7.80;99.90;;;;;;5092670;28;19967;-67
2021/12/25 08:02:14;;;;;;;;;;;7.90;99.90;;;;;;5095201;28;19980;-66
2021/12/25 08:04:39;;;;;;;;;;;7.90;99.90;;;;;;5096447;28;20431;-67
2021/12/25 08:07:05;;;;;;;;;;;8.00;99.90;;;;;;5097523;28;19908;-67
2021/12/25 08:09:31;;;;;;;;;;;8.00;99.90;;;;;;5086978;28;19919;-67
2021/12/25 08:11:58;;;;;;;;;;;8.10;99.90;;;;;;5101143;28;19972;-68
2021/12/25 08:14:25;;;;;;;;;;;8.10;99.90;;;;;;5098784;28;19951;-68
2021/12/25 08:16:52;;;;;;;;;;;8.10;99.90;;;;;;5094124;28;20336;-67
2021/12/25 08:19:18;;;;;;;;;;;8.20;99.90;;;;;;5097551;28;19915;-66
2021/12/25 08:21:43;;;;;;;;;;;8.20;99.90;;;;;;5100460;28;19933;-69
2021/12/25 08:24:09;;;;;;;;;;;8.20;99.90;;;;;;5087080;28;19911;-68
2021/12/25 08:26:34;;;;;;;;;;;8.20;99.90;;;;;;5095815;28;19908;-68
2021/12/25 08:29:00;;;;;;;;;;;8.20;99.90;;;;;;5098908;28;19908;-68
2021/12/25 08:31:25;;;;;;;;;;;8.40;99.90;;;;;;5092723;28;19912;-68
2021/12/25 08:33:51;;;;;;;;;;;8.40;99.90;;;;;;5102536;28;20373;-69
2021/12/25 08:36:20;;;;;;;;;;;8.40;99.90;;;;;;5092245;28;20262;-70
2021/12/25 08:38:45;;;;;;;;;;;8.40;99.90;;;;;;5097201;28;20170;-68
2021/12/25 08:41:11;;;;;;;;;;;8.40;99.90;;;;;;5097633;28;20506;-67
2021/12/25 08:43:45;;;;;;;;;;;8.40;99.90;;;;;;5096286;28;19947;-67
2021/12/25 08:46:16;;;;;;;;;;;8.30;99.90;;;;;;5095079;28;20335;-68
2021/12/25 08:48:42;;;;;;;;;;;8.20;99.90;;;;;;5093893;28;19915;-68
2021/12/25 08:51:07;;;;;;;;;;;8.20;99.90;;;;;;5094291;28;19919;-70
2021/12/25 08:53:33;;;;;;;;;;;8.10;99.90;;;;;;5105502;28;20297;-70
2021/12/25 08:55:59;;;;;;;;;;;8.10;99.90;;;;;;5093445;28;19998;-71
2021/12/25 08:58:26;;;;;;;;;;;8.00;99.90;;;;;;5107525;28;20373;-69
2021/12/25 09:00:56;;;;;;;;;;;8.10;99.90;;;;;;5102046;28;19920;-69
2021/12/25 09:03:23;;;;;;;;;;;8.10;99.90;;;;;;5102469;28;20045;-70
2021/12/25 09:05:48;;;;;;;;;;;8.10;99.90;;;;;;5099900;28;19907;-69
2021/12/25 09:08:14;;;;;;;;;;;8.10;99.90;;;;;;5103354;28;19961;-70
2021/12/25 09:10:40;;;;;;;;;;;8.10;99.90;;;;;;5102795;28;19959;-70
2021/12/25 09:13:06;;;;;;;;;;;8.10;99.90;;;;;;5096852;28;19915;-69
2021/12/25 09:15:31;;;;;;;;;;;8.10;99.90;;;;;;5101465;28;19912;-67
2021/12/25 09:17:57;;;;;;;;;;;8.10;99.90;;;;;;5098552;28;19907;-69
2021/12/25 09:20:23;;;;;;;;;;;8.10;99.90;;;;;;5101092;28;19927;-69
2021/12/25 09:22:48;;;;;;;;;;;8.10;99.90;;;;;;5098224;28;19999;-69
2021/12/25 09:25:14;;;;;;;;;;;8.20;99.90;;;;;;5101244;28;20333;-68
2021/12/25 09:27:40;;;;;;;;;;;8.30;99.90;;;;;;5101048;28;19915;-69
2021/12/25 09:30:06;;;;;;;;;;;8.30;99.90;;;;;;5108261;28;19978;-68
2021/12/25 09:32:32;;;;;;;;;;;8.40;99.90;;;;;;5093454;28;19919;-67
2021/12/25 09:35:00;;;;;;;;;;;8.50;99.90;;;;;;5104128;28;19907;-70
2021/12/25 09:37:29;;;;;;;;;;;8.60;99.90;;;;;;5094965;28;20393;-69
2021/12/25 09:39:54;;;;;;;;;;;8.60;99.90;;;;;;5084727;28;20133;-68
2021/12/25 09:42:23;;;;;;;;;;;8.60;99.90;;;;;;5103230;28;20485;-69
2021/12/25 09:44:49;;;;;;;;;;;8.60;99.90;;;;;;5099132;28;19952;-69
2021/12/25 09:47:15;;;;;;;;;;;8.70;99.90;;;;;;5095771;28;19957;-68
2021/12/25 09:49:40;;;;;;;;;;;8.90;99.90;;;;;;5105639;28;20354;-69
2021/12/25 09:52:06;;;;;;;;;;;8.90;99.90;;;;;;5094116;28;20329;-70
2021/12/25 09:54:31;;;;;;;;;;;8.90;99.90;;;;;;5102168;28;19916;-69
2021/12/25 09:56:58;;;;;;;;;;;9.10;99.90;;;;;;5105909;28;19930;-69
2021/12/25 09:59:24;;;;;;;;;;;9.10;99.90;;;;;;5098505;28;19916;-69
2021/12/25 10:01:50;;;;;;;;;;;9.10;99.90;;;;;;5102291;28;19915;-68
2021/12/25 10:04:33;;;;;;;;;;;9.20;99.90;;;;;;5103071;28;19908;-69
2021/12/25 10:07:10;;;;;;;;;;;9.10;99.90;;;;;;5088943;28;20003;-70
2021/12/25 10:09:36;;;;;;;;;;;9.10;99.90;;;;;;5096424;28;19908;-68
2021/12/25 10:12:08;;;;;;;;;;;9.10;99.90;;;;;;5088034;28;19908;-69
2021/12/25 10:14:34;;;;;;;;;;;9.10;99.90;;;;;;5093961;28;19946;-70
2021/12/25 10:17:14;;;;;;;;;;;9.10;99.90;;;;;;5093973;28;20030;-69
2021/12/25 10:19:39;;;;;;;;;;;9.10;99.90;;;;;;5102137;28;19919;-70
2021/12/25 10:22:06;;;;;;;;;;;9.10;99.90;;;;;;5098339;28;19907;-67
2021/12/25 10:24:37;;;;;;;;;;;9.10;99.90;;;;;;5096954;28;19912;-68
2021/12/25 10:27:12;;;;;;;;;;;9.10;99.90;;;;;;5086320;28;19931;-69
2021/12/25 10:29:37;;;;;;;;;;;9.00;99.90;;;;;;5099168;28;19961;-69
2021/12/25 10:32:13;;;;;;;;;;;9.00;99.90;;;;;;5103932;28;19912;-69
2021/12/25 10:34:39;;;;;;;;;;;9.00;99.90;;;;;;5089680;28;20007;-69
2021/12/25 10:37:08;;;;;;;;;;;8.90;99.90;;;;;;5091683;28;20048;-68
2021/12/25 10:39:34;;;;;;;;;;;9.10;99.90;;;;;;5099326;28;20013;-69
2021/12/25 10:42:09;;;;;;;;;;;9.20;99.90;;;;;;5105699;28;20035;-69
2021/12/25 10:44:36;;;;;;;;;;;9.10;99.90;;;;;;5090985;28;19927;-69
2021/12/25 10:47:05;;;;;;;;;;;9.10;99.90;;;;;;5098298;28;20069;-68
2021/12/25 10:49:33;;;;;;;;;;;9.10;99.90;;;;;;5090884;28;19908;-69
2021/12/25 10:52:10;;;;;;;;;;;9.10;99.90;;;;;;5094325;28;19934;-66
2021/12/25 10:54:37;;;;;;;;;;;9.10;99.90;;;;;;5103726;28;20395;-68
2021/12/25 10:57:03;;;;;;;;;;;9.10;99.90;;;;;;5105779;28;19986;-69
2021/12/25 10:59:40;;;;;;;;;;;9.00;99.90;;;;;;5094372;28;19908;-68
2021/12/25 11:02:06;;;;;;;;;;;8.90;99.90;;;;;;5086390;28;20362;-69
2021/12/25 11:04:35;;;;;;;;;;;9.00;99.90;;;;;;5084399;28;19914;-68
2021/12/25 11:07:11;;;;;;;;;;;8.90;99.90;;;;;;5089892;28;19911;-68
2021/12/25 11:09:37;;;;;;;;;;;9.10;99.90;;;;;;5099194;28;19930;-68
2021/12/25 11:12:20;;;;;;;;;;;9.00;99.90;;;;;;5093959;28;20360;-68
2021/12/25 11:14:45;;;;;;;;;;;9.10;99.90;;;;;;5097373;28;19908;-68
2021/12/25 11:17:22;;;;;;;;;;;9.00;99.90;;;;;;5098732;28;19965;-69
2021/12/25 11:19:56;;;;;;;;;;;9.00;99.90;;;;;;5096901;28;19915;-70
2021/12/25 11:22:22;;;;;;;;;;;9.00;99.90;;;;;;5094521;28;19914;-67
2021/12/25 11:24:48;;;;;;;;;;;9.10;99.90;;;;;;5090593;28;19908;-69
2021/12/25 11:27:14;;;;;;;;;;;9.10;99.90;;;;;;5094489;28;19908;-67
2021/12/25 11:29:40;;;;;;;;;;;8.90;99.90;;;;;;5093191;28;20041;-68
2021/12/25 11:32:06;;;;;;;;;;;8.90;99.90;;;;;;5088744;28;19908;-69
2021/12/25 11:34:32;;;;;;;;;;;8.90;99.90;;;;;;5092937;28;19908;-69
2021/12/25 11:37:00;;;;;;;;;;;8.80;99.90;;;;;;5092217;28;19923;-68
2021/12/25 11:39:27;;;;;;;;;;;8.80;99.90;;;;;;5092313;28;20284;-69
2021/12/25 11:41:56;;;;;;;;;;;8.90;99.90;;;;;;5102856;28;20291;-69
2021/12/25 11:44:42;;;;;;;;;;;8.90;99.90;;;;;;5098147;28;19912;-68
2021/12/25 11:47:10;;;;;;;;;;;9.10;99.90;;;;;;5092326;28;19908;-67
2021/12/25 11:49:53;;;;;;;;;;;9.00;99.90;;;;;;5094250;28;20618;-69
2021/12/25 11:52:19;;;;;;;;;;;9.00;99.90;;;;;;5091315;28;19907;-69
2021/12/25 11:55:11;;;;;;;;;;;9.00;99.90;;;;;;5099586;28;20230;-69
2021/12/25 11:57:46;;;;;;;;;;;9.00;99.90;;;;;;5088797;28;20006;-65
2021/12/25 12:00:12;;;;;;;;;;;9.00;99.90;;;;;;5089390;28;19953;-67
2021/12/25 12:02:43;;;;;;;;;;;9.00;99.90;;;;;;5093292;28;19912;-66
2021/12/25 12:05:18;;;;;;;;;;;9.00;99.90;;;;;;5089966;28;19961;-67
2021/12/25 12:07:56;;;;;;;;;;;8.80;99.90;;;;;;5090703;28;19915;-68
2021/12/25 12:10:41;;;;;;;;;;;8.70;99.90;;;;;;5095747;28;19923;-68
2021/12/25 12:13:27;;;;;;;;;;;8.70;99.90;;;;;;5095672;28;20230;-68
2021/12/25 12:15:53;;;;;;;;;;;8.70;99.90;;;;;;5096239;28;20078;-69
2021/12/25 12:18:30;;;;;;;;;;;8.80;99.90;;;;;;5091009;28;20176;-69
2021/12/25 12:21:01;;;;;;;;;;;8.80;99.90;;;;;;5095208;28;19994;-68
2021/12/25 12:26:13;;;;;;;;;;;8.80;99.90;;;;;;5086995;28;19955;-69
2021/12/25 12:28:46;;;;;;;;;;;8.90;99.90;;;;;;5095064;28;19979;-67
2021/12/25 12:31:41;;;;;;;;;;;8.80;99.90;;;;;;5101673;28;19934;-68
2021/12/25 12:34:25;;;;;;;;;;;8.90;99.90;;;;;;5092774;28;19907;-67
2021/12/25 12:36:51;;;;;;;;;;;8.90;99.90;;;;;;5104442;28;20006;-68
2021/12/25 12:39:20;;;;;;;;;;;8.90;99.90;;;;;;5100018;28;19974;-69
2021/12/25 12:41:54;;;;;;;;;;;9.00;99.90;;;;;;5105715;28;20010;-69
2021/12/25 12:44:31;;;;;;;;;;;8.90;99.90;;;;;;5098995;28;19908;-69
2021/12/25 12:46:59;;;;;;;;;;;8.80;99.90;;;;;;5112197;28;20010;-69
2021/12/25 12:49:29;;;;;;;;;;;8.80;99.90;;;;;;5098175;28;19915;-68
2021/12/25 12:52:14;;;;;;;;;;;8.80;99.90;;;;;;5100055;28;20003;-67
2021/12/25 12:54:45;;;;;;;;;;;8.80;99.90;;;;;;5092569;28;19908;-68
2021/12/25 12:57:21;;;;;;;;;;;8.80;99.90;;;;;;5105223;28;19908;-69
2021/12/25 12:59:51;;;;;;;;;;;8.90;99.90;;;;;;5103296;28;19916;-66
2021/12/25 13:02:17;;;;;;;;;;;8.90;99.90;;;;;;5109297;28;20352;-69
2021/12/25 13:04:47;;;;;;;;;;;8.80;99.90;;;;;;5101415;28;19914;-68
2021/12/25 13:07:13;;;;;;;;;;;8.80;99.90;;;;;;5103936;28;19904;-66
2021/12/25 13:09:44;;;;;;;;;;;8.80;99.90;;;;;;5104413;28;19959;-67
2021/12/25 13:12:21;;;;;;;;;;;8.90;99.90;;;;;;5097321;28;20379;-68
2021/12/25 13:14:56;;;;;;;;;;;8.80;99.90;;;;;;5105867;28;19962;-69
2021/12/25 13:17:22;;;;;;;;;;;8.80;99.90;;;;;;5096156;28;20002;-67
2021/12/25 13:19:48;;;;;;;;;;;8.80;99.90;;;;;;5103037;28;19959;-66
2021/12/25 13:22:13;;;;;;;;;;;8.90;99.90;;;;;;5110595;28;19908;-66
2021/12/25 13:24:39;;;;;;;;;;;8.90;99.90;;;;;;5097906;28;20404;-69
2021/12/25 13:27:05;;;;;;;;;;;9.00;99.90;;;;;;5107725;28;19961;-68
2021/12/25 13:29:31;;;;;;;;;;;9.00;99.90;;;;;;5107920;28;20284;-67
2021/12/25 13:31:57;;;;;;;;;;;9.00;99.90;;;;;;5101318;28;19911;-68
2021/12/25 13:34:23;;;;;;;;;;;9.10;99.90;;;;;;5101456;28;19931;-67
2021/12/25 13:36:50;;;;;;;;;;;9.00;99.90;;;;;;5101508;28;19987;-68
2021/12/25 13:39:18;;;;;;;;;;;9.20;99.90;;;;;;5093792;28;19994;-67
2021/12/25 13:42:06;;;;;;;;;;;9.20;99.90;;;;;;5095947;28;19970;-67
2021/12/25 13:44:33;;;;;;;;;;;9.10;99.90;;;;;;5097996;28;19916;-68
2021/12/25 13:47:00;;;;;;;;;;;9.10;99.90;;;;;;5090221;28;20002;-69
2021/12/25 13:49:25;;;;;;;;;;;9.10;99.90;;;;;;5093924;28;19962;-69
2021/12/25 13:51:51;;;;;;;;;;;9.10;99.90;;;;;;5094467;28;20385;-68
2021/12/25 13:54:17;;;;;;;;;;;9.00;99.90;;;;;;5100044;28;20411;-68
2021/12/25 13:57:01;;;;;;;;;;;9.10;99.90;;;;;;5108570;28;19908;-68
2021/12/25 13:59:27;;;;;;;;;;;9.10;99.90;;;;;;5100123;28;19920;-69
2021/12/25 14:02:04;;;;;;;;;;;9.20;99.90;;;;;;5091913;28;20018;-69
2021/12/25 14:04:29;;;;;;;;;;;9.20;99.90;;;;;;5098062;28;19907;-68
2021/12/25 14:06:55;;;;;;;;;;;9.10;99.90;;;;;;5086171;28;19927;-68
2021/12/25 14:09:21;;;;;;;;;;;9.10;99.90;;;;;;5102620;28;19916;-68
2021/12/25 14:11:54;;;;;;;;;;;9.10;99.90;;;;;;5101038;28;19966;-68
2021/12/25 14:14:20;;;;;;;;;;;9.00;99.90;;;;;;5095663;28;19970;-68
2021/12/25 14:16:46;;;;;;;;;;;9.00;99.90;;;;;;5101084;28;19907;-67
2021/12/25 14:19:13;;;;;;;;;;;9.00;99.90;;;;;;5086747;28;20167;-68
2021/12/25 14:21:40;;;;;;;;;;;9.00;99.90;;;;;;5096878;28;19907;-69
2021/12/25 14:24:12;;;;;;;;;;;9.00;99.90;;;;;;5102510;28;19961;-68
2021/12/25 14:26:38;;;;;;;;;;;9.00;99.90;;;;;;5101030;28;19908;-69
2021/12/25 14:29:17;;;;;;;;;;;9.00;99.90;;;;;;5100732;28;19954;-67
2021/12/25 14:31:43;;;;;;;;;;;8.90;99.90;;;;;;5096461;28;20381;-68
2021/12/25 14:34:08;;;;;;;;;;;8.90;99.90;;;;;;5107782;28;19908;-66
2021/12/25 14:36:38;;;;;;;;;;;8.90;99.90;;;;;;5090055;28;19965;-66
2021/12/25 14:39:05;;;;;;;;;;;8.90;99.90;;;;;;5105435;28;19908;-69
2021/12/25 14:41:32;;;;;;;;;;;8.90;99.90;;;;;;5105779;28;19908;-69
2021/12/25 14:43:57;;;;;;;;;;;8.80;99.90;;;;;;5102885;28;19908;-68
2021/12/25 14:46:24;;;;;;;;;;;8.80;99.90;;;;;;5098179;28;19953;-67
2021/12/25 14:48:50;;;;;;;;;;;8.90;99.90;;;;;;5101302;28;19916;-69
2021/12/25 14:51:15;;;;;;;;;;;8.90;99.90;;;;;;5099280;28;20258;-68
2021/12/25 14:53:54;;;;;;;;;;;8.90;99.90;;;;;;5096363;28;19916;-69
2021/12/25 14:56:26;;;;;;;;;;;8.90;99.90;;;;;;5099761;28;19907;-70
2021/12/25 14:58:55;;;;;;;;;;;8.90;99.90;;;;;;5101462;28;19911;-70
2021/12/25 15:01:23;;;;;;;;;;;8.90;99.90;;;;;;5098926;28;19919;-69
2021/12/25 15:04:04;;;;;;;;;;;9.00;99.90;;;;;;5094147;28;19957;-69
2021/12/25 15:06:30;;;;;;;;;;;9.10;99.90;;;;;;5090936;28;19930;-70
2021/12/25 15:08:59;;;;;;;;;;;9.00;99.90;;;;;;5098129;28;20369;-69
2021/12/25 15:11:30;;;;;;;;;;;9.00;99.90;;;;;;5102888;28;19956;-67
2021/12/25 15:13:57;;;;;;;;;;;9.00;99.90;;;;;;5099347;28;20275;-68
2021/12/25 15:16:32;;;;;;;;;;;9.00;99.90;;;;;;5098163;28;19986;-68
2021/12/25 15:18:58;;;;;;;;;;;9.00;99.90;;;;;;5097447;28;20007;-68
2021/12/25 15:21:23;;;;;;;;;;;8.90;99.90;;;;;;5106357;28;19961;-68
2021/12/25 15:24:07;;;;;;;;;;;8.90;99.90;;;;;;5102693;28;19908;-68
2021/12/25 15:26:41;;;;;;;;;;;9.00;99.90;;;;;;5090271;28;20011;-69
2021/12/25 15:29:06;;;;;;;;;;;9.00;99.90;;;;;;5093161;28;20408;-67
2021/12/25 15:31:32;;;;;;;;;;;9.00;99.90;;;;;;5095509;28;19998;-68
2021/12/25 15:33:59;;;;;;;;;;;9.00;99.90;;;;;;5099038;28;19908;-65
2021/12/25 15:36:26;;;;;;;;;;;9.00;99.90;;;;;;5095918;28;19914;-69
2021/12/25 15:38:52;;;;;;;;;;;9.00;99.90;;;;;;5097226;28;19935;-67
2021/12/25 15:41:18;;;;;;;;;;;9.00;99.90;;;;;;5099382;28;19968;-66
2021/12/25 15:43:44;;;;;;;;;;;8.90;99.90;;;;;;5088261;28;19908;-68
2021/12/25 15:46:11;;;;;;;;;;;9.00;99.90;;;;;;5097803;28;19908;-69